createdAt,value
2019-02-18T00:01:18.894Z,18.70
2019-02-18T00:03:47.462Z,18.33
2019-02-18T00:06:16.068Z,22.97
2019-02-18T00:08:46.066Z,20.20
2019-02-18T00:11:15.796Z,21.13
2019-02-18T00:13:44.373Z,18.48
2019-02-18T00:16:15.907Z,20.82
2019-02-18T00:18:44.712Z,19.33
2019-02-18T00:21:13.308Z,17.53
2019-02-18T00:24:01.156Z,20.40
2019-02-18T00:26:30.444Z,22.87
2019-02-18T00:28:58.971Z,19.50
2019-02-18T00:31:27.464Z,18.50
2019-02-18T00:34:04.399Z,22.80
2019-02-18T00:36:36.430Z,19.73
2019-02-18T00:39:08.502Z,19.70
2019-02-18T00:41:37.023Z,27.77
2019-02-18T00:44:09.012Z,21.35
2019-02-18T00:46:37.528Z,22.33
2019-02-18T00:49:07.530Z,25.20
2019-02-18T00:51:37.431Z,20.70
2019-02-18T00:54:08.773Z,22.43
2019-02-18T00:56:37.270Z,19.63
2019-02-18T00:59:07.375Z,18.73
2019-02-18T01:01:35.937Z,18.70
2019-02-18T01:04:04.755Z,25.83
2019-02-18T01:06:33.247Z,22.27
2019-02-18T01:09:01.819Z,19.87
2019-02-18T01:11:31.795Z,23.83
2019-02-18T01:14:00.395Z,19.33
2019-02-18T01:16:33.259Z,21.87
2019-02-18T01:19:01.885Z,21.13
2019-02-18T01:21:32.073Z,23.07
2019-02-18T01:24:00.581Z,22.40
2019-02-18T01:26:30.049Z,24.37
2019-02-18T01:29:04.139Z,19.93
2019-02-18T01:31:38.677Z,23.83
2019-02-18T01:34:08.653Z,21.80
2019-02-18T01:36:39.021Z,21.50
2019-02-18T01:39:07.516Z,23.93
2019-02-18T01:41:36.209Z,20.97
2019-02-18T01:44:04.977Z,22.60
2019-02-18T01:46:34.677Z,25.08
2019-02-18T01:49:06.961Z,22.90
2019-02-18T01:51:35.551Z,22.00
2019-02-18T01:54:04.257Z,21.57
2019-02-18T01:56:36.697Z,19.80
2019-02-18T01:59:05.167Z,20.50
2019-02-18T02:01:33.804Z,23.13
2019-02-18T02:04:06.608Z,22.57
2019-02-18T02:06:35.067Z,22.27
2019-02-18T02:09:06.373Z,21.63
2019-02-18T02:11:41.845Z,21.40
2019-02-18T02:14:10.559Z,21.90
2019-02-18T02:16:44.520Z,19.87
2019-02-18T02:19:16.005Z,20.37
2019-02-18T02:21:50.011Z,24.57
2019-02-18T02:24:18.765Z,21.87
2019-02-18T02:26:53.255Z,22.33
2019-02-18T02:29:30.604Z,20.90
2019-02-18T02:32:02.506Z,22.90
2019-02-18T02:34:31.127Z,21.10
2019-02-18T02:37:01.457Z,24.30
2019-02-18T02:39:30.109Z,25.00
2019-02-18T02:42:01.937Z,21.47
2019-02-18T02:44:31.905Z,23.63
2019-02-18T02:47:02.103Z,24.20
2019-02-18T02:49:32.774Z,21.27
2019-02-18T02:52:02.216Z,24.50
2019-02-18T02:54:38.269Z,26.20
2019-02-18T02:57:07.952Z,20.90
2019-02-18T02:59:36.662Z,24.63
2019-02-18T03:02:05.362Z,24.57
2019-02-18T03:04:35.450Z,24.82
2019-02-18T03:07:06.252Z,28.67
2019-02-18T03:09:37.566Z,22.13
2019-02-18T03:12:06.136Z,22.37
2019-02-18T03:14:36.089Z,24.43
2019-02-18T03:17:04.781Z,21.77
2019-02-18T03:19:34.244Z,24.53
2019-02-18T03:22:04.462Z,21.70
2019-02-18T03:24:34.596Z,21.47
2019-02-18T03:27:03.197Z,23.43
2019-02-18T03:29:57.648Z,24.97
2019-02-18T03:32:26.194Z,21.47
2019-02-18T03:34:55.157Z,22.53
2019-02-18T03:37:25.299Z,23.20
2019-02-18T03:39:53.908Z,20.60
2019-02-18T03:42:24.572Z,21.37
2019-02-18T03:44:59.464Z,22.13
2019-02-18T03:47:29.547Z,22.93
2019-02-18T03:49:58.201Z,21.47
2019-02-18T03:52:26.695Z,21.97
2019-02-18T03:54:59.585Z,19.15
2019-02-18T03:57:28.310Z,23.50
2019-02-18T03:59:56.882Z,24.77
2019-02-18T04:02:27.360Z,22.22
2019-02-18T04:04:57.895Z,26.80
2019-02-18T04:07:26.593Z,23.13
2019-02-18T04:09:56.601Z,22.30
2019-02-18T04:12:26.705Z,23.12
2019-02-18T04:14:56.228Z,23.10
2019-02-18T04:17:24.751Z,25.23
2019-02-18T04:19:57.259Z,21.53
2019-02-18T04:22:27.406Z,22.40
2019-02-18T04:24:56.867Z,23.40
2019-02-18T04:27:29.759Z,25.40
2019-02-18T04:29:58.321Z,23.57
2019-02-18T04:32:26.832Z,22.07
2019-02-18T04:34:55.345Z,23.53
2019-02-18T04:37:26.575Z,23.10
2019-02-18T04:39:56.603Z,23.33
2019-02-18T04:42:27.811Z,23.40
2019-02-18T04:44:58.213Z,23.13
2019-02-18T04:47:32.000Z,22.13
2019-02-18T04:50:00.515Z,25.77
2019-02-18T04:52:37.439Z,22.30
2019-02-18T04:55:09.952Z,20.50
2019-02-18T04:57:38.507Z,20.63
2019-02-18T05:00:10.381Z,23.05
2019-02-18T05:02:45.353Z,25.50
2019-02-18T05:05:15.883Z,21.73
2019-02-18T05:07:46.461Z,20.73
2019-02-18T05:10:16.207Z,22.40
2019-02-18T05:12:44.798Z,23.40
2019-02-18T05:15:17.537Z,22.13
2019-02-18T05:17:47.605Z,22.77
2019-02-18T05:20:16.108Z,21.07
2019-02-18T05:22:44.980Z,20.60
2019-02-18T05:25:13.572Z,19.33
2019-02-18T05:27:42.155Z,18.70
2019-02-18T05:30:12.422Z,21.12
2019-02-18T05:32:44.029Z,21.17
2019-02-18T05:35:15.153Z,17.93
2019-02-18T05:37:48.033Z,17.93
2019-02-18T05:40:15.454Z,21.80
2019-02-18T05:42:46.783Z,18.33
2019-02-18T05:45:15.318Z,16.83
2019-02-18T05:47:46.663Z,20.48
2019-02-18T05:50:15.238Z,23.10
2019-02-18T05:52:43.716Z,18.50
2019-02-18T05:55:13.279Z,19.63
2019-02-18T05:57:41.941Z,18.17
2019-02-18T06:00:13.222Z,16.33
2019-02-18T06:02:42.177Z,17.67
2019-02-18T06:05:12.283Z,17.03
2019-02-18T06:07:42.668Z,16.43
2019-02-18T06:10:13.939Z,17.67
2019-02-18T06:12:48.912Z,16.10
2019-02-18T06:15:21.483Z,18.00
2019-02-18T06:17:50.930Z,19.43
2019-02-18T06:20:23.948Z,18.03
2019-02-18T06:22:55.239Z,15.40
2019-02-18T06:25:23.761Z,18.82
2019-02-18T06:27:56.369Z,18.60
2019-02-18T06:30:26.748Z,17.03
2019-02-18T06:33:01.227Z,15.77
2019-02-18T06:35:31.219Z,14.87
2019-02-18T06:38:02.761Z,14.87
2019-02-18T06:40:31.296Z,16.70
2019-02-18T06:43:05.715Z,15.57
2019-02-18T06:45:52.848Z,13.08
2019-02-18T06:48:40.789Z,15.80
2019-02-18T06:51:17.083Z,15.47
2019-02-18T06:53:48.512Z,15.70
2019-02-18T06:56:18.654Z,18.90
2019-02-18T06:58:57.736Z,21.87
2019-02-18T07:01:36.340Z,17.32
2019-02-18T07:04:12.354Z,16.33
2019-02-18T07:06:42.453Z,16.33
2019-02-18T07:09:12.582Z,16.63
2019-02-18T07:11:46.770Z,18.37
2019-02-18T07:14:15.320Z,17.07
2019-02-18T07:16:45.054Z,16.17
2019-02-18T07:19:13.540Z,17.93
2019-02-18T07:21:45.872Z,15.63
2019-02-18T07:24:21.839Z,15.93
2019-02-18T07:26:56.754Z,19.27
2019-02-18T07:29:25.348Z,19.67
2019-02-18T07:31:55.332Z,16.60
2019-02-18T07:34:26.804Z,18.27
2019-02-18T07:37:14.734Z,16.60
2019-02-18T07:39:47.838Z,18.30
2019-02-18T07:42:17.515Z,17.32
2019-02-18T07:44:46.049Z,14.87
2019-02-18T07:47:16.927Z,15.70
2019-02-18T07:49:45.409Z,15.58
2019-02-18T07:52:17.549Z,16.17
2019-02-18T07:54:47.396Z,15.80
2019-02-18T07:57:15.907Z,14.03
2019-02-18T07:59:44.357Z,14.57
2019-02-18T08:02:17.031Z,14.13
2019-02-18T08:04:49.657Z,15.90
2019-02-18T08:07:28.051Z,19.80
2019-02-18T08:09:56.555Z,20.13
2019-02-18T08:12:25.019Z,15.00
2019-02-18T08:15:00.325Z,15.68
2019-02-18T08:17:28.813Z,14.40
2019-02-18T08:19:59.951Z,18.17
2019-02-18T08:22:28.449Z,17.90
2019-02-18T08:24:59.859Z,12.80
2019-02-18T08:27:29.885Z,15.23
2019-02-18T08:29:59.925Z,15.67
2019-02-18T08:32:32.589Z,17.40
2019-02-18T08:35:01.077Z,13.93
2019-02-18T08:37:33.341Z,16.50
2019-02-18T08:40:05.905Z,17.53
2019-02-18T08:42:34.597Z,14.77
2019-02-18T08:45:03.370Z,12.90
2019-02-18T08:47:31.939Z,14.57
2019-02-18T08:50:01.062Z,15.63
2019-02-18T08:52:29.527Z,17.50
2019-02-18T08:55:02.784Z,16.37
2019-02-18T08:57:30.977Z,13.93
2019-02-18T08:59:59.471Z,19.03
2019-02-18T09:02:28.883Z,14.50
2019-02-18T09:04:57.515Z,14.83
2019-02-18T09:07:28.752Z,15.27
2019-02-18T09:10:04.543Z,17.97
2019-02-18T09:12:34.541Z,15.20
2019-02-18T09:15:08.853Z,14.23
2019-02-18T09:17:39.983Z,15.80
2019-02-18T09:20:11.702Z,13.88
2019-02-18T09:22:41.936Z,17.50
2019-02-18T09:25:13.907Z,17.93
2019-02-18T09:27:42.639Z,17.33
2019-02-18T09:30:14.697Z,14.45
2019-02-18T09:32:43.432Z,16.30
2019-02-18T09:35:13.869Z,15.50
2019-02-18T09:37:42.110Z,16.67
2019-02-18T09:40:14.169Z,15.77
2019-02-18T09:42:45.100Z,14.50
2019-02-18T09:45:14.991Z,14.03
2019-02-18T09:47:47.287Z,19.15
2019-02-18T09:50:15.897Z,17.50
2019-02-18T09:52:44.407Z,17.03
2019-02-18T09:55:14.511Z,15.08
2019-02-18T09:57:43.009Z,17.27
2019-02-18T10:00:34.725Z,20.87
2019-02-18T10:03:05.411Z,15.37
2019-02-18T10:05:34.985Z,16.37
2019-02-18T10:08:09.138Z,15.07
2019-02-18T10:10:37.701Z,16.77
2019-02-18T10:13:06.390Z,14.50
2019-02-18T10:15:34.984Z,17.47
2019-02-18T10:18:03.616Z,18.10
2019-02-18T10:20:32.152Z,16.67
2019-02-18T10:23:05.914Z,20.62
2019-02-18T10:25:38.255Z,19.73
2019-02-18T10:28:06.884Z,17.30
2019-02-18T10:30:41.356Z,16.97
2019-02-18T10:33:10.891Z,18.53
2019-02-18T10:35:39.446Z,16.57
2019-02-18T10:38:07.940Z,23.62
2019-02-18T10:40:36.459Z,18.80
2019-02-18T10:43:06.644Z,15.77
2019-02-18T10:45:37.552Z,21.30
2019-02-18T10:48:08.951Z,17.03
2019-02-18T10:50:37.517Z,22.47
2019-02-18T10:53:06.052Z,18.70
2019-02-18T10:55:34.858Z,17.95
2019-02-18T10:58:06.743Z,17.32
2019-02-18T11:00:37.696Z,18.77
2019-02-18T11:04:24.204Z,15.97
2019-02-18T11:06:52.771Z,17.50
2019-02-18T11:09:21.306Z,20.40
2019-02-18T11:11:49.982Z,18.37
2019-02-18T11:14:19.657Z,22.93
2019-02-18T11:16:53.030Z,22.70
2019-02-18T11:19:22.810Z,19.10
2019-02-18T11:21:54.274Z,14.90
2019-02-18T11:24:22.820Z,17.97
2019-02-18T11:26:53.228Z,17.30
2019-02-18T11:29:21.771Z,16.20
2019-02-18T11:31:51.778Z,18.50
2019-02-18T11:34:25.114Z,17.47
2019-02-18T11:36:55.201Z,18.07
2019-02-18T11:39:27.596Z,16.87
2019-02-18T11:41:56.354Z,15.17
2019-02-18T11:44:24.911Z,18.17
2019-02-18T11:46:53.492Z,15.27
2019-02-18T11:49:23.215Z,19.20
2019-02-18T11:51:51.773Z,17.93
2019-02-18T11:54:22.220Z,18.77
2019-02-18T11:56:50.842Z,19.37
2019-02-18T11:59:24.518Z,20.00
2019-02-18T12:01:54.716Z,23.70
2019-02-18T12:04:29.391Z,24.23
2019-02-18T12:06:58.143Z,24.43
2019-02-18T12:09:29.237Z,20.60
2019-02-18T12:12:01.884Z,18.83
2019-02-18T12:14:31.603Z,17.90
2019-02-18T12:17:20.836Z,20.67
2019-02-18T12:19:50.709Z,20.83
2019-02-18T12:22:20.841Z,17.73
2019-02-18T12:24:52.031Z,23.87
2019-02-18T12:27:20.842Z,20.90
2019-02-18T12:29:53.399Z,21.67
2019-02-18T12:32:26.407Z,22.30
2019-02-18T12:35:04.200Z,22.53
2019-02-18T12:37:40.835Z,19.80
2019-02-18T12:40:14.025Z,19.95
2019-02-18T12:42:44.921Z,16.00
2019-02-18T12:45:13.887Z,22.97
2019-02-18T12:47:42.658Z,18.27
2019-02-18T12:50:13.839Z,19.43
2019-02-18T12:52:47.140Z,24.98
2019-02-18T12:55:18.143Z,21.73
2019-02-18T12:57:46.887Z,17.93
2019-02-18T13:00:18.988Z,15.70
2019-02-18T13:02:47.878Z,17.87
2019-02-18T13:05:17.881Z,17.67
2019-02-18T13:07:46.514Z,22.63
2019-02-18T13:10:16.737Z,17.77
2019-02-18T13:12:45.710Z,18.37
2019-02-18T13:15:18.435Z,16.90
2019-02-18T13:17:52.572Z,16.90
2019-02-18T13:23:10.470Z,19.43
2019-02-18T13:25:47.412Z,17.83
2019-02-18T13:28:14.354Z,17.47
2019-02-18T13:30:48.690Z,16.30
2019-02-18T13:33:20.398Z,19.25
2019-02-18T13:35:54.654Z,22.13
2019-02-18T13:38:24.774Z,17.53
2019-02-18T13:40:53.436Z,19.77
2019-02-18T13:43:22.050Z,18.57
2019-02-18T13:45:50.622Z,15.50
2019-02-18T13:48:22.134Z,16.42
2019-02-18T13:50:59.974Z,17.83
2019-02-18T13:53:31.114Z,20.62
2019-02-18T13:56:03.004Z,16.63
2019-02-18T13:58:33.205Z,17.57
2019-02-18T14:01:02.006Z,20.50
2019-02-18T14:03:31.822Z,16.73
2019-02-18T14:06:05.360Z,14.67
2019-02-18T14:08:35.643Z,13.80
2019-02-18T14:11:07.210Z,18.57
2019-02-18T14:13:35.750Z,15.80
2019-02-18T14:16:07.126Z,16.03
2019-02-18T14:18:37.329Z,18.03
2019-02-18T14:21:11.070Z,15.67
2019-02-18T14:23:39.906Z,13.33
2019-02-18T14:26:10.456Z,13.67
2019-02-18T14:28:39.454Z,16.90
2019-02-18T14:31:10.436Z,18.30
2019-02-18T14:33:38.958Z,14.83
2019-02-18T14:36:08.453Z,13.97
2019-02-18T14:38:36.959Z,12.73
2019-02-18T14:41:07.160Z,12.87
2019-02-18T14:43:36.233Z,13.93
2019-02-18T14:46:06.546Z,14.80
2019-02-18T14:48:35.161Z,10.00
2019-02-18T14:51:06.224Z,12.87
2019-02-18T14:53:36.396Z,13.62
2019-02-18T14:56:07.403Z,13.13
2019-02-18T14:58:37.698Z,16.33
2019-02-18T15:01:08.024Z,25.23
2019-02-18T15:03:40.294Z,18.00
2019-02-18T15:06:08.850Z,11.80
2019-02-18T15:08:37.484Z,11.93
2019-02-18T15:11:06.521Z,10.93
2019-02-18T15:13:36.084Z,12.90
2019-02-18T15:16:09.649Z,11.47
2019-02-18T15:18:38.308Z,12.98
2019-02-18T15:21:09.966Z,13.20
2019-02-18T15:23:39.860Z,10.20
2019-02-18T15:26:09.171Z,13.20
2019-02-18T15:28:40.627Z,12.20
2019-02-18T15:31:10.283Z,13.83
2019-02-18T15:33:44.975Z,10.67
2019-02-18T15:36:13.603Z,13.30
2019-02-18T15:38:44.535Z,11.60
2019-02-18T15:41:13.195Z,12.77
2019-02-18T15:43:43.459Z,12.80
2019-02-18T15:46:12.170Z,13.57
2019-02-18T15:48:43.572Z,15.07
2019-02-18T15:51:14.570Z,12.07
2019-02-18T15:53:44.275Z,15.43
2019-02-18T15:56:12.799Z,13.57
2019-02-18T15:58:41.349Z,13.57
2019-02-18T16:01:17.530Z,12.83
2019-02-18T16:03:46.125Z,11.67
2019-02-18T16:06:14.893Z,13.23
2019-02-18T16:08:45.605Z,10.70
2019-02-18T16:11:17.222Z,12.85
2019-02-18T16:13:45.866Z,20.07
2019-02-18T16:16:14.444Z,17.00
2019-02-18T16:18:45.622Z,14.70
2019-02-18T16:21:16.318Z,12.27
2019-02-18T16:23:46.830Z,15.60
2019-02-18T16:26:15.374Z,13.17
2019-02-18T16:28:50.093Z,13.87
2019-02-18T16:31:23.038Z,14.73
2019-02-18T16:33:58.402Z,17.43
2019-02-18T16:36:28.243Z,15.30
2019-02-18T16:38:57.229Z,15.33
2019-02-18T16:41:26.705Z,16.50
2019-02-18T16:43:55.422Z,18.43
2019-02-18T16:46:26.982Z,18.17
2019-02-18T16:48:55.858Z,17.60
2019-02-18T16:51:28.453Z,14.97
2019-02-18T16:53:57.095Z,21.73
2019-02-18T16:56:25.674Z,20.17
2019-02-18T16:58:54.276Z,18.00
2019-02-18T17:01:23.386Z,20.93
2019-02-18T17:03:52.900Z,15.83
2019-02-18T17:06:23.115Z,19.07
2019-02-18T17:08:51.722Z,15.97
2019-02-18T17:11:20.299Z,19.53
2019-02-18T17:13:50.050Z,22.10
2019-02-18T17:16:20.808Z,18.87
2019-02-18T17:18:50.444Z,20.33
2019-02-18T17:21:19.932Z,18.60
2019-02-18T17:23:54.790Z,21.57
2019-02-18T17:26:24.428Z,17.53
2019-02-18T17:28:54.914Z,20.13
2019-02-18T17:31:23.389Z,22.30
2019-02-18T17:33:51.932Z,18.13
2019-02-18T17:36:21.694Z,19.37
2019-02-18T17:38:50.396Z,16.70
2019-02-18T17:41:22.193Z,19.67
2019-02-18T17:43:51.403Z,18.57
2019-02-18T17:46:20.996Z,22.13
2019-02-18T17:48:51.295Z,21.90
2019-02-18T17:51:22.874Z,23.67
2019-02-18T17:53:51.726Z,23.00
2019-02-18T17:56:20.319Z,22.80
2019-02-18T17:58:53.100Z,19.12
2019-02-18T18:01:28.776Z,22.03
2019-02-18T18:03:58.512Z,22.70
2019-02-18T18:06:28.762Z,21.67
2019-02-18T18:08:58.393Z,20.13
2019-02-18T18:11:27.439Z,20.23
2019-02-18T18:13:56.049Z,19.07
2019-02-18T18:16:28.163Z,20.40
2019-02-18T18:18:56.863Z,22.03
2019-02-18T18:21:26.936Z,24.30
2019-02-18T18:23:57.938Z,28.57
2019-02-18T18:26:26.574Z,26.97
2019-02-18T18:28:57.446Z,25.37
2019-02-18T18:31:27.080Z,24.12
2019-02-18T18:33:56.484Z,27.10
2019-02-18T18:36:24.962Z,22.93
2019-02-18T18:38:54.273Z,28.10
2019-02-18T18:41:25.783Z,22.57
2019-02-18T18:43:57.601Z,28.83
2019-02-18T18:46:26.311Z,28.30
2019-02-18T18:48:59.199Z,29.03
2019-02-18T18:51:33.854Z,26.53
2019-02-18T18:54:02.556Z,30.97
2019-02-18T18:56:32.498Z,26.87
2019-02-18T18:59:04.911Z,25.23
2019-02-18T19:01:33.651Z,24.53
2019-02-18T19:04:02.208Z,25.47
2019-02-18T19:06:30.967Z,22.07
2019-02-18T19:09:00.923Z,23.87
2019-02-18T19:11:30.785Z,26.93
2019-02-18T19:14:01.417Z,24.03
2019-02-18T19:16:30.123Z,24.83
2019-02-18T19:19:00.244Z,25.17
2019-02-18T19:21:32.567Z,21.00
2019-02-18T19:24:01.463Z,20.00
2019-02-18T19:26:31.194Z,19.57
2019-02-18T19:28:59.713Z,22.83
2019-02-18T19:31:29.507Z,24.50
2019-02-18T19:33:58.299Z,20.47
2019-02-18T19:36:29.905Z,22.10
2019-02-18T19:38:59.852Z,22.77
2019-02-18T19:41:30.307Z,18.17
2019-02-18T19:43:59.881Z,19.07
2019-02-18T19:46:28.685Z,18.47
2019-02-18T19:48:57.767Z,21.37
2019-02-18T19:51:26.454Z,17.87
2019-02-18T19:53:56.257Z,22.17
2019-02-18T19:56:26.328Z,20.43
2019-02-18T19:58:56.348Z,16.00
2019-02-18T20:01:34.922Z,21.73
2019-02-18T20:04:06.262Z,20.33
2019-02-18T20:06:43.919Z,16.53
2019-02-18T20:09:14.102Z,15.53
2019-02-18T20:11:44.596Z,15.43
2019-02-18T20:14:15.449Z,14.30
2019-02-18T20:16:50.066Z,16.47
2019-02-18T20:19:18.747Z,12.93
2019-02-18T20:21:49.944Z,12.63
2019-02-18T20:24:18.878Z,14.37
2019-02-18T20:26:48.595Z,18.33
2019-02-18T20:29:17.112Z,16.33
2019-02-18T20:31:45.696Z,11.93
2019-02-18T20:34:16.679Z,16.83
2019-02-18T20:36:47.662Z,17.67
2019-02-18T20:39:16.498Z,14.60
2019-02-18T20:41:46.024Z,14.00
2019-02-18T20:44:14.537Z,19.03
2019-02-18T20:46:46.127Z,15.67
2019-02-18T20:49:17.693Z,14.23
2019-02-18T20:51:47.040Z,14.13
2019-02-18T20:54:19.778Z,15.33
2019-02-18T20:56:48.276Z,15.30
2019-02-18T20:59:16.830Z,18.03
2019-02-18T21:01:48.251Z,16.77
2019-02-18T21:04:21.195Z,14.97
2019-02-18T21:06:52.468Z,17.63
2019-02-18T21:09:23.122Z,13.93
2019-02-18T21:11:54.516Z,19.10
2019-02-18T21:14:23.106Z,18.05
2019-02-18T21:16:52.981Z,16.07
2019-02-18T21:19:22.669Z,13.72
2019-02-18T21:21:57.148Z,13.53
2019-02-18T21:24:30.199Z,17.47
2019-02-18T21:27:01.984Z,19.80
2019-02-18T21:29:31.971Z,17.77
2019-02-18T21:32:03.673Z,17.37
2019-02-18T21:34:33.173Z,14.47
2019-02-18T21:37:01.693Z,17.80
2019-02-18T21:39:31.788Z,16.23
2019-02-18T21:42:00.333Z,18.53
2019-02-18T21:44:28.862Z,15.73
2019-02-18T21:46:58.349Z,15.83
2019-02-18T21:49:28.495Z,17.83
2019-02-18T21:51:57.030Z,17.20
2019-02-18T21:54:25.556Z,15.87
2019-02-18T21:56:54.951Z,16.57
2019-02-18T21:59:23.477Z,17.67
2019-02-18T22:01:52.205Z,14.57
2019-02-18T22:04:21.585Z,15.70
2019-02-18T22:06:56.283Z,16.53
2019-02-18T22:09:27.837Z,17.00
2019-02-18T22:11:56.291Z,16.67
2019-02-18T22:14:33.276Z,17.17
2019-02-18T22:17:00.819Z,15.03
2019-02-18T22:19:29.283Z,19.53
2019-02-18T22:21:58.872Z,19.03
2019-02-18T22:24:27.413Z,18.67
2019-02-18T22:27:00.203Z,17.40
2019-02-18T22:29:29.339Z,20.68
2019-02-18T22:31:58.065Z,14.83
2019-02-18T22:34:27.419Z,15.85
2019-02-18T22:36:58.980Z,15.03
2019-02-18T22:39:27.563Z,14.87
2019-02-18T22:41:59.732Z,15.53
2019-02-18T22:44:31.215Z,15.40
2019-02-18T22:46:59.668Z,16.73
2019-02-18T22:49:28.363Z,17.83
2019-02-18T22:51:58.417Z,16.97
2019-02-18T22:54:29.454Z,15.70
2019-02-18T22:56:58.000Z,20.85
2019-02-18T22:59:29.802Z,18.57
2019-02-18T23:01:58.381Z,18.25
2019-02-18T23:04:31.005Z,17.87
2019-02-18T23:07:00.388Z,16.12
2019-02-18T23:09:29.059Z,19.57
2019-02-18T23:12:02.264Z,17.27
2019-02-18T23:14:33.453Z,15.53
2019-02-18T23:17:02.132Z,20.17
2019-02-18T23:19:30.754Z,14.87
2019-02-18T23:21:59.608Z,15.73
2019-02-18T23:24:32.474Z,17.07
2019-02-18T23:27:01.003Z,18.00
2019-02-18T23:29:33.124Z,16.97
2019-02-18T23:32:01.662Z,16.10
2019-02-18T23:34:32.884Z,19.83
2019-02-18T23:37:01.458Z,20.40
2019-02-18T23:39:30.192Z,19.90
2019-02-18T23:41:58.658Z,22.57
2019-02-18T23:44:27.513Z,19.37
2019-02-18T23:46:56.046Z,18.27
2019-02-18T23:49:24.536Z,17.17
2019-02-18T23:51:53.040Z,15.27
2019-02-18T23:54:21.539Z,19.43
2019-02-18T23:56:50.079Z,16.70
2019-02-18T23:59:18.582Z,19.02
